Time;durP1;ratioP1;P1;durP2;ratioP2;P2;SDS_P1;SDS_P2;PMS_P1;PMS_P2;Temp;Humidity;BMP_temperature;BMP_pressure;BME280_temperature;BME280_humidity;BME280_pressure;Samples;Min_cycle;Max_cycle;Signal;HPM_P1;HPM_P2
2022/09/19 00:01:30;;;;;;;0.37;0.37;;;11.50;99.90;;;;;;5032064;28;20213;-58
2022/09/19 00:04:00;;;;;;;0.70;0.47;;;11.60;99.90;;;;;;5032346;28;20210;-57
2022/09/19 00:06:29;;;;;;;1.10;0.43;;;11.60;99.90;;;;;;5032604;28;20713;-57
2022/09/19 00:08:57;;;;;;;3.97;0.40;;;11.60;99.90;;;;;;5032345;28;20230;-57
2022/09/19 00:11:26;;;;;;;0.63;0.53;;;11.70;99.90;;;;;;5031670;28;20672;-57
2022/09/19 00:13:56;;;;;;;2.43;0.90;;;11.70;99.90;;;;;;5032354;28;20214;-57
2022/09/19 00:16:26;;;;;;;0.70;0.60;;;11.60;99.90;;;;;;5032128;28;20234;-57
2022/09/19 00:18:55;;;;;;;0.83;0.57;;;11.40;99.90;;;;;;5032468;28;20311;-57
2022/09/19 00:21:23;;;;;;;0.70;0.50;;;11.20;99.90;;;;;;5031862;28;20212;-56
2022/09/19 00:26:37;;;;;;;0.40;0.40;;;10.90;99.90;;;;;;5032113;28;20229;-57
2022/09/19 00:29:05;;;;;;;0.40;0.40;;;10.80;99.90;;;;;;5031970;28;20717;-56
2022/09/19 00:31:32;;;;;;;0.93;0.60;;;10.80;99.90;;;;;;5031641;28;20697;-56
2022/09/19 00:34:00;;;;;;;1.70;0.67;;;10.60;99.90;;;;;;5033197;28;20422;-57
2022/09/19 00:36:27;;;;;;;0.97;0.47;;;10.50;99.90;;;;;;5036007;28;20312;-57
2022/09/19 00:38:56;;;;;;;0.80;0.40;;;10.40;99.90;;;;;;5036126;28;20237;-57
2022/09/19 00:41:26;;;;;;;1.43;0.90;;;10.20;99.90;;;;;;5035339;28;20202;-57
2022/09/19 00:43:55;;;;;;;2.30;0.40;;;10.00;99.90;;;;;;5035919;28;20229;-56
2022/09/19 00:46:24;;;;;;;0.63;0.30;;;9.90;99.90;;;;;;5035870;28;20253;-57
2022/09/19 00:48:56;;;;;;;0.40;0.40;;;9.90;99.90;;;;;;5035612;28;20230;-57
2022/09/19 00:51:31;;;;;;;1.13;0.40;;;9.80;99.90;;;;;;5035277;28;20210;-57
2022/09/19 00:54:02;;;;;;;0.40;0.30;;;9.70;99.90;;;;;;5035841;28;20584;-57
2022/09/19 00:56:30;;;;;;;0.20;0.20;;;9.60;99.90;;;;;;5035900;28;20230;-55
2022/09/19 00:58:59;;;;;;;0.30;0.27;;;9.50;99.90;;;;;;5036083;28;20206;-55
2022/09/19 01:01:26;;;;;;;0.63;0.30;;;9.40;99.90;;;;;;5035331;28;20621;-58
2022/09/19 01:03:53;;;;;;;0.87;0.53;;;9.40;99.90;;;;;;5035556;28;20213;-57
2022/09/19 01:06:35;;;;;;;1.13;0.40;;;9.30;99.90;;;;;;5035138;28;20277;-57
2022/09/19 01:09:19;;;;;;;0.90;0.50;;;9.30;99.90;;;;;;5035893;28;20226;-56
2022/09/19 01:11:57;;;;;;;0.90;0.67;;;9.20;99.90;;;;;;5035135;28;20210;-56
2022/09/19 01:14:37;;;;;;;0.83;0.40;;;9.10;99.90;;;;;;5035761;28;20224;-56
2022/09/19 01:17:09;;;;;;;0.30;0.30;;;9.10;99.90;;;;;;5035645;28;20300;-56
2022/09/19 01:20:11;;;;;;;0.47;0.40;;;9.10;99.90;;;;;;5035927;28;20203;-56
2022/09/19 01:22:50;;;;;;;0.50;0.43;;;9.00;99.90;;;;;;5035529;28;20693;-56
2022/09/19 01:25:31;;;;;;;1.07;0.60;;;9.00;99.90;;;;;;5035476;28;20237;-59
2022/09/19 01:28:10;;;;;;;0.63;0.60;;;8.90;99.90;;;;;;5035405;28;20240;-56
2022/09/19 01:30:43;;;;;;;0.50;0.40;;;8.90;99.90;;;;;;5035339;28;20210;-58
2022/09/19 01:33:17;;;;;;;0.30;0.30;;;8.80;99.90;;;;;;5035349;28;20217;-56
2022/09/19 01:35:48;;;;;;;2.50;1.30;;;8.80;99.90;;;;;;5035586;28;20295;-56
2022/09/19 01:38:19;;;;;;;3.47;1.20;;;8.80;99.90;;;;;;5035678;28;20198;-57
2022/09/19 01:40:46;;;;;;;1.47;1.07;;;8.80;99.90;;;;;;5035323;28;20242;-56
2022/09/19 01:43:17;;;;;;;1.07;0.77;;;8.80;99.90;;;;;;5035463;28;20202;-57
2022/09/19 01:45:45;;;;;;;0.73;0.57;;;8.80;99.90;;;;;;5036201;28;20237;-56
2022/09/19 01:48:17;;;;;;;0.83;0.50;;;8.80;99.90;;;;;;5036277;28;20222;-56
2022/09/19 01:51:13;;;;;;;2.13;1.17;;;8.80;99.90;;;;;;5035182;28;20236;-56
2022/09/19 01:54:04;;;;;;;2.30;0.80;;;8.80;99.90;;;;;;5034825;28;20214;-56
2022/09/19 01:56:39;;;;;;;0.57;0.40;;;8.70;99.90;;;;;;5031269;28;20230;-56
2022/09/19 01:59:18;;;;;;;1.37;0.87;;;8.60;99.90;;;;;;5034736;28;20293;-55
2022/09/19 02:01:51;;;;;;;0.97;0.30;;;8.60;99.90;;;;;;5035005;28;20210;-56
2022/09/19 02:04:23;;;;;;;1.43;0.30;;;8.50;99.90;;;;;;5035267;28;20207;-55
2022/09/19 02:06:56;;;;;;;1.17;0.30;;;8.50;99.90;;;;;;5034866;28;20234;-54
2022/09/19 02:09:27;;;;;;;1.30;0.83;;;8.40;99.90;;;;;;5034448;28;20237;-56
2022/09/19 02:11:59;;;;;;;1.00;0.50;;;8.50;99.90;;;;;;5033284;28;20211;-56
2022/09/19 02:14:31;;;;;;;0.67;0.40;;;8.40;99.90;;;;;;5034086;28;20252;-55
2022/09/19 02:17:03;;;;;;;1.80;0.40;;;8.40;99.90;;;;;;5033975;28;20334;-55
2022/09/19 02:19:34;;;;;;;1.50;0.60;;;8.40;99.90;;;;;;5033743;28;20206;-56
2022/09/19 02:22:05;;;;;;;2.23;0.57;;;8.50;99.90;;;;;;5033560;28;20233;-56
2022/09/19 02:24:35;;;;;;;0.40;0.30;;;8.50;99.90;;;;;;5033866;28;20662;-56
2022/09/19 02:27:07;;;;;;;0.57;0.47;;;8.60;99.90;;;;;;5034026;28;20208;-56
2022/09/19 02:29:38;;;;;;;0.63;0.57;;;8.80;99.90;;;;;;5034048;28;20253;-56
2022/09/19 02:32:07;;;;;;;1.43;0.53;;;8.90;99.90;;;;;;5033902;28;20195;-56
2022/09/19 02:34:34;;;;;;;2.77;1.70;;;9.10;99.90;;;;;;5034103;28;20206;-57
2022/09/19 02:37:05;;;;;;;3.17;1.00;;;9.30;99.90;;;;;;5033765;28;20229;-56
2022/09/19 02:39:37;;;;;;;0.63;0.33;;;9.40;99.90;;;;;;5034066;28;20206;-57
2022/09/19 02:42:11;;;;;;;1.47;0.70;;;9.50;99.90;;;;;;5033505;28;20202;-55
2022/09/19 02:44:52;;;;;;;2.10;0.50;;;9.60;99.90;;;;;;5034257;28;20226;-55
2022/09/19 02:47:25;;;;;;;1.90;0.53;;;9.60;99.90;;;;;;5034179;28;20210;-55
2022/09/19 02:49:56;;;;;;;0.40;0.30;;;9.60;99.90;;;;;;5033617;28;20226;-54
2022/09/19 02:52:29;;;;;;;2.57;0.70;;;9.70;99.90;;;;;;5034148;28;20276;-55
2022/09/19 02:55:02;;;;;;;2.23;1.60;;;9.80;99.90;;;;;;5034390;28;20647;-55
2022/09/19 02:57:32;;;;;;;2.33;0.90;;;9.90;99.90;;;;;;5033699;28;20301;-56
2022/09/19 03:00:02;;;;;;;1.63;0.90;;;9.90;99.90;;;;;;5034213;28;20209;-56
2022/09/19 03:02:32;;;;;;;2.13;1.20;;;10.00;99.90;;;;;;5033905;28;20202;-55
2022/09/19 03:05:05;;;;;;;5.03;2.90;;;10.10;99.90;;;;;;5033638;28;20313;-56
2022/09/19 03:07:36;;;;;;;1.87;0.80;;;10.20;99.90;;;;;;5033196;28;20260;-55
2022/09/19 03:10:08;;;;;;;5.10;1.20;;;10.30;99.90;;;;;;5032914;28;20596;-56
2022/09/19 03:12:39;;;;;;;2.77;1.07;;;10.30;99.90;;;;;;5033597;28;20206;-56
2022/09/19 03:15:09;;;;;;;2.13;1.67;;;10.40;99.90;;;;;;5034415;28;20233;-56
2022/09/19 03:17:40;;;;;;;3.50;2.30;;;10.40;99.90;;;;;;5033297;28;20590;-57
2022/09/19 03:20:11;;;;;;;5.03;1.50;;;10.40;99.90;;;;;;5032836;28;20209;-57
2022/09/19 03:22:38;;;;;;;2.10;0.70;;;10.40;99.90;;;;;;5033600;28;20293;-57
2022/09/19 03:25:06;;;;;;;1.53;0.80;;;10.40;99.90;;;;;;5033995;28;20240;-57
2022/09/19 03:27:33;;;;;;;1.70;0.90;;;10.40;99.90;;;;;;5033709;28;20213;-55
2022/09/19 03:29:59;;;;;;;3.33;1.10;;;10.40;99.90;;;;;;5033062;28;20222;-56
2022/09/19 03:32:27;;;;;;;4.70;1.27;;;10.40;99.90;;;;;;5033772;28;20214;-56
2022/09/19 03:34:55;;;;;;;4.97;1.67;;;10.40;99.90;;;;;;5033369;28;20212;-55
2022/09/19 03:37:22;;;;;;;1.33;0.90;;;10.50;99.90;;;;;;5033206;28;20254;-56
2022/09/19 03:39:49;;;;;;;2.50;0.50;;;10.50;99.90;;;;;;5033297;28;20203;-56
2022/09/19 03:42:18;;;;;;;2.60;1.03;;;10.60;99.90;;;;;;5033048;28;20211;-56
2022/09/19 03:44:45;;;;;;;2.97;1.07;;;10.60;99.90;;;;;;5032588;28;20301;-56
2022/09/19 03:47:12;;;;;;;4.03;1.57;;;10.60;99.90;;;;;;5032724;28;20218;-56
2022/09/19 03:49:40;;;;;;;4.93;2.07;;;10.70;99.90;;;;;;5033135;28;20521;-56
2022/09/19 03:52:06;;;;;;;6.23;2.03;;;10.70;99.90;;;;;;5032346;28;20229;-56
2022/09/19 03:54:34;;;;;;;3.80;1.60;;;10.80;99.90;;;;;;5032748;28;20216;-55
2022/09/19 03:57:00;;;;;;;2.70;0.90;;;10.80;99.90;;;;;;5032742;28;20582;-57
2022/09/19 03:59:27;;;;;;;1.57;1.03;;;10.80;99.90;;;;;;5032564;28;20198;-56
2022/09/19 04:01:54;;;;;;;1.90;0.50;;;10.80;99.90;;;;;;5032220;28;20214;-56
2022/09/19 04:04:22;;;;;;;1.73;0.70;;;10.90;99.90;;;;;;5032777;28;20233;-56
2022/09/19 04:06:50;;;;;;;3.40;1.10;;;10.90;99.90;;;;;;5032445;28;20253;-56
2022/09/19 04:09:16;;;;;;;2.17;1.30;;;10.90;99.90;;;;;;5033926;28;20237;-56
2022/09/19 04:11:43;;;;;;;4.90;1.40;;;10.90;99.90;;;;;;5036015;28;20202;-55
2022/09/19 04:14:10;;;;;;;2.40;1.60;;;10.90;99.90;;;;;;5036562;28;20297;-55
2022/09/19 04:16:37;;;;;;;3.30;1.70;;;10.90;99.90;;;;;;5036404;28;20229;-56
2022/09/19 04:19:10;;;;;;;2.33;1.00;;;10.90;99.90;;;;;;5036105;28;20602;-55
2022/09/19 04:21:38;;;;;;;3.90;1.10;;;10.80;99.90;;;;;;5035908;28;20625;-56
2022/09/19 04:24:06;;;;;;;3.90;1.27;;;10.70;99.90;;;;;;5036398;28;20210;-56
2022/09/19 04:26:33;;;;;;;3.20;1.03;;;10.70;99.90;;;;;;5035837;28;20225;-56
2022/09/19 04:29:02;;;;;;;3.00;0.97;;;10.80;99.90;;;;;;5036023;28;20333;-55
2022/09/19 04:31:35;;;;;;;1.17;0.70;;;10.90;99.90;;;;;;5036530;28;20206;-56
2022/09/19 04:34:02;;;;;;;3.57;0.83;;;11.00;99.90;;;;;;5037512;28;20626;-56
2022/09/19 04:36:31;;;;;;;4.10;1.10;;;11.10;99.90;;;;;;5037480;28;20288;-55
2022/09/19 04:39:02;;;;;;;3.63;1.30;;;11.10;99.90;;;;;;5037015;28;20245;-56
2022/09/19 04:41:33;;;;;;;3.27;1.27;;;11.10;99.90;;;;;;5036412;28;20210;-56
2022/09/19 04:43:59;;;;;;;5.20;0.97;;;11.10;99.90;;;;;;5037724;28;20273;-55
2022/09/19 04:46:26;;;;;;;2.13;0.80;;;11.10;99.90;;;;;;5037513;28;20721;-56
2022/09/19 04:48:55;;;;;;;4.87;1.30;;;11.20;99.90;;;;;;5036718;28;20206;-55
2022/09/19 04:51:23;;;;;;;4.13;1.70;;;11.20;99.90;;;;;;5035640;28;20232;-54
2022/09/19 04:53:50;;;;;;;5.07;1.13;;;11.20;99.90;;;;;;5035699;28;20210;-54
2022/09/19 04:56:18;;;;;;;3.13;0.87;;;11.20;99.90;;;;;;5035511;28;20327;-56
2022/09/19 04:58:46;;;;;;;2.20;1.03;;;11.30;99.90;;;;;;5036018;28;20206;-56
2022/09/19 05:01:14;;;;;;;3.90;1.20;;;11.30;99.90;;;;;;5034865;28;20206;-56
2022/09/19 05:03:43;;;;;;;3.23;0.73;;;11.30;99.90;;;;;;5035663;28;20203;-60
2022/09/19 05:06:11;;;;;;;4.43;0.80;;;11.40;99.90;;;;;;5035252;28;20271;-56
2022/09/19 05:08:40;;;;;;;5.30;1.30;;;11.40;99.90;;;;;;5035279;28;20244;-57
2022/09/19 05:11:08;;;;;;;3.70;1.13;;;11.50;99.90;;;;;;5034916;28;20221;-56
2022/09/19 05:13:37;;;;;;;5.60;1.50;;;11.40;99.90;;;;;;5034933;28;20217;-57
2022/09/19 05:16:07;;;;;;;6.10;1.27;;;11.40;99.90;;;;;;5068403;23;20260;-61
2022/09/19 05:18:37;;;;;;;3.67;1.10;;;11.40;99.90;;;;;;5065722;28;20616;-62
2022/09/19 05:21:06;;;;;;;6.50;1.20;;;11.50;99.90;;;;;;5073204;28;20285;-62
2022/09/19 05:23:33;;;;;;;3.63;1.10;;;11.50;99.90;;;;;;5074441;28;20205;-62
2022/09/19 05:26:04;;;;;;;3.47;1.00;;;11.50;99.90;;;;;;5074412;28;20232;-62
2022/09/19 05:28:30;;;;;;;1.97;1.00;;;11.60;99.90;;;;;;5074513;28;20213;-62
2022/09/19 05:30:57;;;;;;;3.03;1.23;;;11.60;99.90;;;;;;5073440;28;20275;-60
2022/09/19 05:33:26;;;;;;;2.47;1.13;;;11.60;99.90;;;;;;5074263;28;20212;-62
2022/09/19 05:35:53;;;;;;;2.50;0.90;;;11.60;99.90;;;;;;5074205;28;20507;-62
2022/09/19 05:38:20;;;;;;;6.43;1.60;;;11.60;99.90;;;;;;5074028;28;20205;-61
2022/09/19 05:40:47;;;;;;;2.93;1.10;;;11.70;99.90;;;;;;5073557;28;20254;-62
2022/09/19 05:43:13;;;;;;;4.50;1.37;;;11.70;99.90;;;;;;5073904;28;20205;-61
2022/09/19 05:45:41;;;;;;;3.20;1.17;;;11.70;99.90;;;;;;5073616;28;20645;-62
2022/09/19 05:48:07;;;;;;;2.03;0.90;;;11.80;99.90;;;;;;5073798;28;20703;-62
2022/09/19 05:50:36;;;;;;;3.30;1.03;;;11.90;99.90;;;;;;5073481;28;20229;-62
2022/09/19 05:55:47;;;;;;;5.00;1.20;;;11.90;99.90;;;;;;5073808;28;20224;-62
2022/09/19 05:58:17;;;;;;;3.77;1.40;;;12.00;99.90;;;;;;5073710;28;20209;-61
2022/09/19 06:00:44;;;;;;;5.10;1.33;;;12.10;99.90;;;;;;5073038;28;20288;-62
2022/09/19 06:03:15;;;;;;;5.47;1.40;;;12.10;99.90;;;;;;5073802;28;20307;-62
2022/09/19 06:05:45;;;;;;;6.23;1.40;;;12.20;99.90;;;;;;5073378;28;20235;-62
2022/09/19 06:08:12;;;;;;;3.03;1.33;;;12.20;99.90;;;;;;5073200;28;20209;-62
2022/09/19 06:10:41;;;;;;;3.97;1.43;;;12.30;99.90;;;;;;5072481;28;20225;-62
2022/09/19 06:13:11;;;;;;;4.93;1.23;;;12.40;99.90;;;;;;5073317;28;20197;-61
2022/09/19 06:15:37;;;;;;;5.13;1.87;;;12.40;99.90;;;;;;5073174;28;20232;-62
2022/09/19 06:18:04;;;;;;;5.43;1.57;;;12.50;99.90;;;;;;5073220;28;20209;-62
2022/09/19 06:20:31;;;;;;;7.27;1.70;;;12.50;99.90;;;;;;5072754;28;20208;-61
2022/09/19 06:23:00;;;;;;;3.63;1.70;;;12.50;99.90;;;;;;5072967;28;20581;-62
2022/09/19 06:25:28;;;;;;;5.67;1.43;;;12.60;99.90;;;;;;5073001;28;20228;-61
2022/09/19 06:27:55;;;;;;;7.37;1.67;;;12.60;99.90;;;;;;5072987;28;20209;-61
2022/09/19 06:30:22;;;;;;;4.83;1.37;;;12.70;99.90;;;;;;5072171;28;20600;-61
2022/09/19 06:32:50;;;;;;;5.63;1.33;;;12.80;99.90;;;;;;5071848;28;20302;-61
2022/09/19 06:35:17;;;;;;;5.33;1.30;;;12.80;99.90;;;;;;5073020;28;20253;-60
2022/09/19 06:37:44;;;;;;;2.10;0.83;;;12.70;99.90;;;;;;5073285;28;20207;-62
2022/09/19 06:40:12;;;;;;;4.77;1.30;;;12.80;99.90;;;;;;5072383;28;20209;-62
2022/09/19 06:42:39;;;;;;;4.27;1.50;;;12.80;99.90;;;;;;5073410;28;20281;-61
2022/09/19 06:45:07;;;;;;;9.87;2.10;;;12.90;99.90;;;;;;5072914;28;20212;-62
2022/09/19 06:47:35;;;;;;;3.87;1.40;;;12.80;99.90;;;;;;5072664;28;20694;-62
2022/09/19 06:50:02;;;;;;;5.10;1.47;;;12.80;99.90;;;;;;5072643;28;20232;-62
2022/09/19 06:52:29;;;;;;;4.33;1.37;;;12.90;99.90;;;;;;5071863;28;20684;-63
2022/09/19 06:54:58;;;;;;;6.77;1.60;;;12.90;99.90;;;;;;5072559;28;20212;-63
2022/09/19 06:57:25;;;;;;;6.63;1.90;;;12.90;99.90;;;;;;5072553;28;20295;-61
2022/09/19 06:59:52;;;;;;;8.07;1.20;;;12.90;99.90;;;;;;5072340;28;20201;-66
2022/09/19 07:02:21;;;;;;;5.00;1.53;;;12.90;99.90;;;;;;5072461;28;20232;-62
2022/09/19 07:04:48;;;;;;;7.13;1.80;;;12.90;99.90;;;;;;5072326;28;20209;-62
2022/09/19 07:07:15;;;;;;;6.47;1.43;;;12.90;99.90;;;;;;5072902;28;20224;-61
2022/09/19 07:09:42;;;;;;;2.93;1.10;;;12.90;99.90;;;;;;5072562;28;20216;-60
2022/09/19 07:12:09;;;;;;;5.63;1.47;;;13.00;99.90;;;;;;5072199;28;20244;-62
2022/09/19 07:14:39;;;;;;;10.17;1.87;;;13.10;99.90;;;;;;5072214;28;20204;-61
2022/09/19 07:17:06;;;;;;;11.70;1.50;;;13.00;99.90;;;;;;5071657;28;20229;-61
2022/09/19 07:19:33;;;;;;;9.00;1.93;;;13.00;99.90;;;;;;5072487;28;20204;-61
2022/09/19 07:21:59;;;;;;;9.13;1.50;;;13.10;99.90;;;;;;5072107;28;20205;-61
2022/09/19 07:24:26;;;;;;;6.33;1.30;;;13.10;99.90;;;;;;5072210;28;20221;-62
2022/09/19 07:26:53;;;;;;;8.67;1.70;;;13.20;99.90;;;;;;5072523;28;20253;-62
2022/09/19 07:29:20;;;;;;;4.10;1.37;;;13.20;99.90;;;;;;5072455;28;20579;-62
2022/09/19 07:31:48;;;;;;;5.13;1.50;;;13.20;99.90;;;;;;5071847;28;20819;-63
2022/09/19 07:34:15;;;;;;;7.63;1.67;;;13.10;99.90;;;;;;5072274;28;20288;-63
2022/09/19 07:36:42;;;;;;;7.73;1.60;;;13.10;99.90;;;;;;5072427;28;20239;-61
2022/09/19 07:39:09;;;;;;;5.10;1.93;;;13.00;99.90;;;;;;5072611;28;20215;-61
2022/09/19 07:41:36;;;;;;;5.20;1.50;;;13.10;99.90;;;;;;5071818;28;20581;-63
2022/09/19 07:44:03;;;;;;;8.13;1.63;;;13.20;99.90;;;;;;5072011;28;20205;-63
2022/09/19 07:46:30;;;;;;;7.77;1.87;;;13.20;99.90;;;;;;5072041;28;20228;-62
2022/09/19 07:48:58;;;;;;;5.13;1.67;;;13.20;99.90;;;;;;5072050;28;20205;-61
2022/09/19 07:51:26;;;;;;;8.90;1.57;;;13.40;99.90;;;;;;5071526;28;20228;-62
2022/09/19 07:53:53;;;;;;;6.53;2.00;;;13.50;99.90;;;;;;5072453;28;20256;-62
2022/09/19 07:56:20;;;;;;;7.57;1.80;;;13.60;99.90;;;;;;5071931;28;20229;-62
2022/09/19 07:58:46;;;;;;;7.43;1.73;;;13.70;99.90;;;;;;5071713;28;20382;-62
2022/09/19 08:01:13;;;;;;;7.00;1.40;;;13.80;99.90;;;;;;5070905;28;20250;-62
2022/09/19 08:03:44;;;;;;;5.77;1.63;;;13.80;99.90;;;;;;5071734;28;20269;-62
2022/09/19 08:06:12;;;;;;;6.77;1.73;;;13.90;99.90;;;;;;5071663;28;20257;-62
2022/09/19 08:08:39;;;;;;;6.23;1.53;;;14.00;99.90;;;;;;5071778;28;20209;-62
2022/09/19 08:11:05;;;;;;;3.93;1.27;;;14.10;99.90;;;;;;5070595;28;20270;-62
2022/09/19 08:13:32;;;;;;;5.90;1.77;;;14.10;99.90;;;;;;5071377;28;20216;-62
2022/09/19 08:15:59;;;;;;;7.07;2.07;;;14.20;99.90;;;;;;5071294;28;20241;-62
2022/09/19 08:18:27;;;;;;;7.13;1.70;;;14.20;99.90;;;;;;5072015;28;20213;-63
2022/09/19 08:20:54;;;;;;;9.83;3.47;;;14.30;99.90;;;;;;5071090;28;20639;-62
2022/09/19 08:23:22;;;;;;;6.33;1.80;;;14.30;99.90;;;;;;5071539;28;20292;-62
2022/09/19 08:25:51;;;;;;;4.83;1.50;;;14.40;99.90;;;;;;5071396;28;20746;-62
2022/09/19 08:28:19;;;;;;;6.17;1.77;;;14.50;99.90;;;;;;5071431;28;20204;-61
2022/09/19 08:30:47;;;;;;;6.73;2.27;;;14.60;99.90;;;;;;5071091;28;20228;-62
2022/09/19 08:33:15;;;;;;;5.63;1.70;;;14.60;99.90;;;;;;5072589;28;20227;-63
2022/09/19 08:35:42;;;;;;;10.40;1.90;;;14.60;99.90;;;;;;5071323;28;20437;-63
2022/09/19 08:38:11;;;;;;;6.03;1.40;;;14.50;99.90;;;;;;5071475;28;20208;-62
2022/09/19 08:40:54;;;;;;;7.60;2.37;;;14.40;99.90;;;;;;5070444;28;20292;-60
2022/09/19 08:43:27;;;;;;;11.73;2.07;;;14.40;99.90;;;;;;5071486;28;20213;-63
2022/09/19 08:46:10;;;;;;;7.57;1.83;;;14.50;99.90;;;;;;5071101;28;20311;-61
2022/09/19 08:48:52;;;;;;;7.47;1.70;;;14.60;99.90;;;;;;5071712;28;20209;-63
2022/09/19 08:51:26;;;;;;;10.70;1.60;;;14.80;99.90;;;;;;5070892;28;20212;-62
2022/09/19 08:54:00;;;;;;;5.80;1.43;;;14.90;99.90;;;;;;5071698;28;20208;-62
2022/09/19 08:56:29;;;;;;;7.33;1.70;;;15.00;99.90;;;;;;5074348;28;20707;-62
2022/09/19 08:58:59;;;;;;;6.33;1.80;;;15.00;99.90;;;;;;5074998;28;20201;-62
2022/09/19 09:01:30;;;;;;;8.50;2.37;;;15.00;99.90;;;;;;5074398;28;20224;-62
2022/09/19 09:04:07;;;;;;;7.87;1.80;;;15.10;99.90;;;;;;5075582;28;20270;-62
2022/09/19 09:06:44;;;;;;;8.70;1.67;;;15.30;99.90;;;;;;5074723;28;20278;-63
2022/09/19 09:09:20;;;;;;;4.30;1.30;;;15.30;99.90;;;;;;5074803;28;20204;-63
2022/09/19 09:12:00;;;;;;;9.20;1.60;;;15.30;99.90;;;;;;5073742;28;20266;-63
2022/09/19 09:14:37;;;;;;;6.57;1.83;;;15.40;99.90;;;;;;5074763;28;20247;-61
2022/09/19 09:17:18;;;;;;;5.27;1.97;;;15.50;99.90;;;;;;5074169;28;20786;-63
2022/09/19 09:20:18;;;;;;;4.63;1.37;;;15.50;99.90;;;;;;5074509;28;20224;-62
2022/09/19 09:22:47;;;;;;;7.60;1.93;;;15.50;99.90;;;;;;5073903;28;20456;-63
2022/09/19 09:25:19;;;;;;;5.97;1.60;;;15.40;99.90;;;;;;5074272;28;20205;-63
2022/09/19 09:28:06;;;;;;;7.03;1.60;;;15.20;99.90;;;;;;5074054;28;20205;-60
2022/09/19 09:30:36;;;;;;;7.37;1.80;;;15.30;99.90;;;;;;5073313;28;20221;-62
2022/09/19 09:33:16;;;;;;;7.20;1.80;;;15.40;99.90;;;;;;5074463;28;20237;-62
2022/09/19 09:35:47;;;;;;;4.37;1.50;;;15.50;99.90;;;;;;5074220;28;20225;-61
2022/09/19 09:38:28;;;;;;;5.10;1.67;;;15.50;99.90;;;;;;5074508;28;20209;-63
2022/09/19 09:44:01;;;;;;;9.30;2.23;;;15.90;99.90;;;;;;5074036;28;20299;-63
2022/09/19 09:46:37;;;;;;;9.30;1.80;;;16.10;99.90;;;;;;5074156;28;20292;-63
2022/09/19 09:49:11;;;;;;;5.83;1.60;;;16.20;99.90;;;;;;5073824;28;20255;-63
2022/09/19 09:51:46;;;;;;;5.50;1.47;;;16.20;99.90;;;;;;5073644;28;20629;-63
2022/09/19 09:57:14;;;;;;;6.33;2.63;;;16.40;99.90;;;;;;5074947;28;20424;-61
2022/09/19 10:05:46;;;;;;;4.53;1.97;;;16.70;99.90;;;;;;5011482;28;20221;-61
2022/09/19 10:08:19;;;;;;;3.33;1.43;;;16.90;99.90;;;;;;5012287;28;20705;-62
2022/09/19 10:10:48;;;;;;;4.07;1.20;;;17.10;99.90;;;;;;5041631;28;20216;-61
2022/09/19 10:13:25;;;;;;;4.45;2.15;;;17.40;99.90;;;;;;5074009;28;20205;-63
2022/09/19 10:15:56;;;;;;;5.22;1.50;;;17.60;99.90;;;;;;5073800;28;20267;-62
2022/09/19 10:18:27;;;;;;;5.72;1.55;;;17.80;99.90;;;;;;5073905;28;20220;-62
2022/09/19 10:20:55;;;;;;;6.43;1.73;;;17.90;99.90;;;;;;5072946;28;21464;-61
2022/09/19 10:23:24;;;;;;;4.18;1.40;;;18.00;99.90;;;;;;5073781;28;20207;-63
2022/09/19 10:25:59;;;;;;;4.55;1.40;;;18.20;99.90;;;;;;5073157;28;20311;-62
2022/09/19 10:28:30;;;;;;;4.30;1.30;;;18.40;99.90;;;;;;5073141;28;20204;-62
2022/09/19 10:31:00;;;;;;;5.97;1.65;;;18.50;99.90;;;;;;5072318;28;20645;-62
2022/09/19 10:33:38;;;;;;;4.18;1.27;;;18.40;99.90;;;;;;5073004;28;20212;-62
2022/09/19 10:36:08;;;;;;;6.82;1.42;;;18.00;99.90;;;;;;5072940;28;20277;-63
2022/09/19 10:38:48;;;;;;;5.70;1.67;;;17.70;99.90;;;;;;5072936;28;20232;-62
2022/09/19 10:41:15;;;;;;;4.70;1.38;;;17.40;99.90;;;;;;5072987;28;20295;-63
2022/09/19 10:43:46;;;;;;;5.85;1.70;;;17.20;99.90;;;;;;5072950;28;20209;-63
2022/09/19 10:46:20;;;;;;;4.20;1.33;;;17.00;99.90;;;;;;5073178;28;20263;-63
2022/09/19 10:48:52;;;;;;;4.15;1.33;;;16.90;99.90;;;;;;5073063;28;20232;-63
2022/09/19 10:51:18;;;;;;;3.25;1.27;;;17.10;99.90;;;;;;5072158;28;20277;-63
2022/09/19 10:53:51;;;;;;;5.70;1.67;;;17.30;99.90;;;;;;5072794;28;20209;-62
2022/09/19 10:56:22;;;;;;;6.90;4.25;;;17.50;99.90;;;;;;5072681;28;20728;-63
2022/09/19 10:58:52;;;;;;;5.43;1.70;;;17.60;99.90;;;;;;5072870;28;20215;-65
2022/09/19 11:01:23;;;;;;;4.00;1.17;;;17.80;99.90;;;;;;5071990;28;20617;-63
2022/09/19 11:04:04;;;;;;;2.75;1.50;;;18.10;99.90;;;;;;5072723;28;20209;-63
2022/09/19 11:06:33;;;;;;;6.47;1.55;;;18.40;99.90;;;;;;5072227;28;20542;-62
2022/09/19 11:09:01;;;;;;;3.92;1.40;;;18.70;99.90;;;;;;5072351;28;20212;-63
2022/09/19 11:11:33;;;;;;;4.60;1.67;;;19.20;99.90;;;;;;5071702;28;20228;-64
2022/09/19 11:14:31;;;;;;;7.03;1.40;;;19.60;99.90;;;;;;5072082;28;20676;-62
2022/09/19 11:17:34;;;;;;;4.70;1.45;;;19.60;99.90;;;;;;5071424;22;20332;-58
2022/09/19 11:20:27;;;;;;;6.43;1.80;;;19.50;99.90;;;;;;5034300;28;20614;-59
2022/09/19 11:23:16;;;;;;;4.68;1.58;;;19.50;99.90;;;;;;5072169;28;20201;-56
2022/09/19 11:25:52;;;;;;;4.20;1.65;;;19.60;99.90;;;;;;5073116;28;20596;-57
2022/09/19 11:28:27;;;;;;;6.03;1.70;;;19.40;99.90;;;;;;5072819;28;20235;-58
2022/09/19 11:31:05;;;;;;;5.25;1.17;;;19.40;99.90;;;;;;5072548;28;20687;-57
2022/09/19 11:33:53;;;;;;;3.45;1.52;;;19.40;99.90;;;;;;5072779;28;20236;-58
2022/09/19 11:36:33;;;;;;;4.30;1.10;;;19.10;99.90;;;;;;5072642;28;20233;-57
2022/09/19 11:39:07;;;;;;;4.22;1.35;;;18.90;99.90;;;;;;5072469;28;20767;-56
2022/09/19 11:41:44;;;;;;;4.40;1.27;;;18.80;99.90;;;;;;5071804;28;20290;-57
2022/09/19 11:44:39;;;;;;;5.43;1.48;;;18.80;99.90;;;;;;5072280;28;20208;-58
2022/09/19 11:47:25;;;;;;;7.53;3.72;;;18.70;99.90;;;;;;5072029;28;20587;-59
2022/09/19 11:50:37;;;;;;;3.80;1.52;;;18.80;99.90;;;;;;5072520;28;20209;-60
2022/09/19 11:53:19;;;;;;;2.83;1.15;;;19.10;99.90;;;;;;5052933;28;20247;-58
2022/09/19 11:55:56;;;;;;;2.80;1.02;;;19.10;99.90;;;;;;5072215;28;20228;-58
2022/09/19 11:58:32;;;;;;;3.55;1.40;;;19.00;99.90;;;;;;5072056;28;20208;-56
2022/09/19 12:01:08;;;;;;;5.70;1.23;;;18.90;99.90;;;;;;5071722;28;20204;-58
2022/09/19 12:03:50;;;;;;;2.78;1.08;;;18.90;99.90;;;;;;5072229;28;20211;-58
2022/09/19 12:06:28;;;;;;;3.28;1.10;;;18.80;99.90;;;;;;5072246;28;20263;-58
2022/09/19 12:09:10;;;;;;;3.00;1.00;;;18.80;99.90;;;;;;5071513;28;20205;-58
2022/09/19 12:11:42;;;;;;;6.20;1.20;;;18.70;99.90;;;;;;5071644;28;20224;-58
2022/09/19 12:14:19;;;;;;;4.57;1.42;;;18.70;99.90;;;;;;5071825;28;20212;-57
2022/09/19 12:16:50;;;;;;;2.95;1.17;;;18.70;99.90;;;;;;5071758;28;20237;-59
2022/09/19 12:19:21;;;;;;;2.35;1.00;;;18.80;99.90;;;;;;5071690;28;20208;-59
2022/09/19 12:21:51;;;;;;;3.17;1.45;;;19.00;99.90;;;;;;5071638;28;20225;-58
2022/09/19 12:27:13;;;;;;;3.67;1.50;;;19.20;99.90;;;;;;5071776;28;20313;-58
2022/09/19 12:29:46;;;;;;;3.35;1.25;;;19.40;99.90;;;;;;5072574;28;20205;-58
2022/09/19 12:32:18;;;;;;;4.97;1.30;;;19.70;99.90;;;;;;5075568;28;20588;-58
2022/09/19 12:34:51;;;;;;;3.10;1.30;;;19.80;99.90;;;;;;5076181;28;20628;-58
2022/09/19 12:37:23;;;;;;;4.88;1.63;;;20.00;99.90;;;;;;5075958;28;20231;-58
2022/09/19 12:40:03;;;;;;;5.30;1.50;;;19.60;99.90;;;;;;5075835;28;20668;-58
2022/09/19 12:42:36;;;;;;;3.08;1.05;;;19.30;99.90;;;;;;5075239;28;20205;-58
2022/09/19 12:45:13;;;;;;;4.57;1.30;;;19.00;99.90;;;;;;5075813;28;20216;-58
2022/09/19 12:47:53;;;;;;;7.03;1.45;;;18.90;99.90;;;;;;5075435;28;20229;-59
2022/09/19 12:50:32;;;;;;;27.30;16.10;;;18.90;99.90;;;;;;5075565;28;20219;-58
2022/09/19 12:53:17;;;;;;;4.32;2.08;;;19.00;99.90;;;;;;5075322;28;20228;-58
2022/09/19 12:56:01;;;;;;;5.43;1.33;;;18.90;99.90;;;;;;5075670;28;20663;-59
2022/09/19 12:58:32;;;;;;;4.78;1.30;;;18.80;99.90;;;;;;5075839;28;20789;-58
2022/09/19 13:01:14;;;;;;;4.32;1.75;;;18.80;99.90;;;;;;5075166;28;20213;-57
2022/09/19 13:03:45;;;;;;;6.68;2.28;;;18.80;99.90;;;;;;5075447;28;20763;-58
2022/09/19 13:06:18;;;;;;;3.83;1.67;;;18.80;99.90;;;;;;5075361;28;20221;-59
2022/09/19 13:08:51;;;;;;;3.47;1.25;;;18.80;99.90;;;;;;5075236;28;20216;-58
2022/09/19 13:11:28;;;;;;;4.15;1.48;;;18.70;99.90;;;;;;5074499;28;20201;-58
2022/09/19 13:14:00;;;;;;;3.97;1.23;;;18.70;99.90;;;;;;5074983;28;20208;-58
2022/09/19 13:16:30;;;;;;;3.88;1.20;;;18.80;99.90;;;;;;5074819;28;20719;-59
2022/09/19 13:24:38;;;;;;;4.22;1.25;;;19.20;99.90;;;;;;5075421;28;20200;-57
2022/09/19 13:27:07;;;;;;;5.93;1.42;;;18.90;99.90;;;;;;5074878;28;20235;-57
2022/09/19 13:29:46;;;;;;;4.07;1.35;;;18.60;99.90;;;;;;5074917;28;20205;-59
2022/09/19 13:32:34;;;;;;;3.78;1.35;;;18.40;99.90;;;;;;5074492;28;20228;-58
2022/09/19 13:35:14;;;;;;;4.75;1.17;;;18.20;99.90;;;;;;5075426;28;20751;-56
2022/09/19 13:37:58;;;;;;;4.40;1.30;;;17.90;99.90;;;;;;5075172;28;20259;-57